Rising Sun, Ohio
Current Conditions -  °F | °C
As of 6:13 PM on Thursday 27 Nov 2014 (Local Time) from KTDZ Reporting Station
Light Snow Light Snow  
Wind Chill: 20°   Ceiling: 4000
Heat Index: 30°   Visibility: 7mi
Dew Point: 26°   Wind: 14mph
Humidity: 85%   Direction: 330°NNW
Pressure: 30.24"   Gusts: NA
Location:  41.2686°N, 83.4288°W
Report Text: KTDZ 272313Z AUTO 33012KT 7SM -SN FEW010 BKN040 OVC049 M01/M03 A3024 RMK AO2 WSHFT 2250 P0000 T10111033 TSNO
Loading
Personal Weather Stations






























Interactive Weather Map New forecast layout! Learn more

10-Day Weather Forecast

Advertisements
Track Severe Weather on mobile